createdAt,value
2022-08-19T00:00:14.955Z,101354.81
2022-08-19T00:05:17.611Z,101359.59
2022-08-19T00:10:20.946Z,101363.25
2022-08-19T00:15:24.735Z,101351.31
2022-08-19T00:20:27.006Z,101356.44
2022-08-19T00:25:30.123Z,101350.84
2022-08-19T00:30:32.967Z,101348.31
2022-08-19T00:35:35.466Z,101337.69
2022-08-19T00:40:37.737Z,101343.81
2022-08-19T00:45:41.652Z,101342.84
2022-08-19T00:50:51.931Z,101340.38
2022-08-19T00:55:57.256Z,101342.09
2022-08-19T01:01:01.365Z,101332.44
2022-08-19T01:06:03.663Z,101331.09
2022-08-19T01:11:07.970Z,101330.19
2022-08-19T01:16:14.659Z,101339.94
2022-08-19T01:21:27.934Z,101334.13
2022-08-19T01:26:31.365Z,101332.81
2022-08-19T01:31:33.664Z,101336.03
2022-08-19T01:36:44.536Z,101339.78
2022-08-19T01:41:48.281Z,101337.84
2022-08-19T01:46:52.064Z,101334.66
2022-08-19T01:51:54.971Z,101342.69
2022-08-19T01:57:11.793Z,101347.13
2022-08-19T02:02:13.978Z,101350.19
2022-08-19T02:07:19.554Z,101348.88
2022-08-19T02:12:22.709Z,101341.00
2022-08-19T02:17:26.406Z,101343.47
2022-08-19T02:22:28.580Z,101334.72
2022-08-19T02:27:30.780Z,101338.03
2022-08-19T02:32:33.094Z,101334.66
2022-08-19T02:37:35.824Z,101322.66
2022-08-19T02:42:37.988Z,101324.25
2022-08-19T02:47:40.646Z,101325.06
2022-08-19T02:52:42.792Z,101326.13
2022-08-19T02:57:45.871Z,101326.88
2022-08-19T03:02:48.040Z,101316.38
2022-08-19T03:07:51.023Z,101307.56
2022-08-19T03:12:53.332Z,101309.63
2022-08-19T03:17:55.614Z,101313.94
2022-08-19T03:22:59.610Z,101310.00
2022-08-19T03:28:01.780Z,101319.28
2022-08-19T03:33:04.032Z,101315.97
2022-08-19T03:38:07.670Z,101322.63
2022-08-19T03:43:09.816Z,101322.72
2022-08-19T03:48:11.956Z,101320.16
2022-08-19T03:53:14.132Z,101321.28
2022-08-19T03:58:16.269Z,101325.75
2022-08-19T04:03:18.416Z,101314.91
2022-08-19T04:08:21.274Z,101313.72
2022-08-19T04:13:23.467Z,101328.22
2022-08-19T04:18:25.749Z,101321.38
2022-08-19T04:23:28.428Z,101313.19
2022-08-19T04:28:32.571Z,101305.25
2022-08-19T04:33:36.101Z,101318.44
2022-08-19T04:38:38.273Z,101305.25
2022-08-19T04:43:40.461Z,101309.66
2022-08-19T04:48:49.325Z,101304.56
2022-08-19T04:53:52.764Z,101295.78
2022-08-19T04:58:56.899Z,101288.63
2022-08-19T05:04:03.031Z,101287.38
2022-08-19T05:09:06.125Z,101291.06
2022-08-19T05:14:10.017Z,101294.16
2022-08-19T05:19:12.186Z,101298.69
2022-08-19T05:24:15.454Z,101305.63
2022-08-19T05:29:20.457Z,101306.97
2022-08-19T05:34:25.447Z,101311.38
2022-08-19T05:39:30.195Z,101310.78
2022-08-19T05:44:34.252Z,101308.03
2022-08-19T05:49:37.722Z,101317.72
2022-08-19T05:54:41.398Z,101309.38
2022-08-19T05:59:43.727Z,101305.16
2022-08-19T06:04:45.888Z,101314.00
2022-08-19T06:09:59.133Z,101306.25
2022-08-19T06:15:07.956Z,101305.63
2022-08-19T06:20:14.124Z,101314.66
2022-08-19T06:25:17.036Z,101294.69
2022-08-19T06:30:19.372Z,101295.81
2022-08-19T06:35:21.744Z,101305.41
2022-08-19T06:40:24.010Z,101307.25
2022-08-19T06:45:35.340Z,101305.53
2022-08-19T06:50:39.688Z,101305.13
2022-08-19T06:55:42.171Z,101307.53
2022-08-19T07:00:44.379Z,101295.41
2022-08-19T07:05:47.241Z,101298.19
2022-08-19T07:10:49.472Z,101292.56
2022-08-19T07:15:51.771Z,101290.72
2022-08-19T07:21:04.379Z,101288.56
2022-08-19T07:26:16.527Z,101282.47
2022-08-19T07:31:23.950Z,101290.00
2022-08-19T07:36:29.042Z,101292.41
2022-08-19T07:41:31.372Z,101298.00
2022-08-19T07:46:34.632Z,101309.81
2022-08-19T07:51:37.280Z,101310.88
2022-08-19T07:56:39.612Z,101318.97
2022-08-19T08:01:42.084Z,101316.97
2022-08-19T08:06:44.380Z,101314.59
2022-08-19T08:11:47.994Z,101320.53
2022-08-19T08:16:51.810Z,101321.91
2022-08-19T08:21:56.678Z,101323.22
2022-08-19T08:27:00.244Z,101329.97
2022-08-19T08:32:02.661Z,101331.28
2022-08-19T08:37:04.984Z,101338.38
2022-08-19T08:42:10.390Z,101345.03
2022-08-19T08:47:22.984Z,101348.88
2022-08-19T08:52:37.925Z,101349.53
2022-08-19T08:58:06.405Z,101347.81
2022-08-19T09:03:23.113Z,101339.53
2022-08-19T09:08:40.098Z,101342.63
2022-08-19T09:14:03.188Z,101340.78
2022-08-19T09:19:08.552Z,101346.50
2022-08-19T09:24:10.857Z,101331.00
2022-08-19T09:29:13.077Z,101337.16
2022-08-19T09:34:21.316Z,101340.00
2022-08-19T09:39:24.086Z,101336.81
2022-08-19T09:44:26.297Z,101330.19
2022-08-19T09:49:29.181Z,101321.84
2022-08-19T09:54:31.362Z,101329.34
2022-08-19T09:59:33.932Z,101334.19
2022-08-19T10:04:36.736Z,101330.59
2022-08-19T10:09:39.276Z,101325.31
2022-08-19T10:14:42.131Z,101319.84
2022-08-19T10:19:55.074Z,101312.88
2022-08-19T10:24:59.190Z,101304.19
2022-08-19T10:30:20.145Z,101299.88
2022-08-19T10:35:22.560Z,101312.66
2022-08-19T10:40:27.468Z,101304.16
2022-08-19T10:45:29.712Z,101302.41
2022-08-19T10:50:31.929Z,101304.00
2022-08-19T10:55:34.223Z,101314.69
2022-08-19T11:00:36.428Z,101301.31
2022-08-19T11:05:40.656Z,101303.28
2022-08-19T11:10:43.420Z,101305.44
2022-08-19T11:16:10.175Z,101299.94
2022-08-19T11:21:15.171Z,101285.72
2022-08-19T11:26:18.747Z,101295.91
2022-08-19T11:31:28.988Z,101290.84
2022-08-19T11:36:31.923Z,101294.09
2022-08-19T11:41:34.723Z,101292.31
2022-08-19T11:46:38.545Z,101284.63
2022-08-19T11:51:41.673Z,101288.16
2022-08-19T11:56:44.247Z,101281.97
2022-08-19T12:01:46.409Z,101279.50
2022-08-19T12:06:48.677Z,101274.31
2022-08-19T12:11:50.895Z,101270.28
2022-08-19T12:16:53.092Z,101285.84
2022-08-19T12:22:00.136Z,101267.19
2022-08-19T12:27:02.899Z,101270.81
2022-08-19T12:32:05.493Z,101275.94
2022-08-19T12:37:08.141Z,101275.81
2022-08-19T12:42:12.799Z,101268.59
2022-08-19T12:47:16.345Z,101277.78
2022-08-19T12:52:23.357Z,101274.41
2022-08-19T12:57:33.033Z,101271.06
2022-08-19T13:02:38.250Z,101267.31
2022-08-19T13:07:41.808Z,101267.19
2022-08-19T13:12:46.905Z,101266.03
2022-08-19T13:17:50.868Z,101274.75
2022-08-19T13:22:53.695Z,101269.66
2022-08-19T13:27:56.019Z,101267.31
2022-08-19T13:32:58.319Z,101266.25
2022-08-19T13:38:00.525Z,101254.81
2022-08-19T13:43:22.426Z,101250.41
2022-08-19T13:48:27.024Z,101248.78
2022-08-19T13:53:29.198Z,101246.75
2022-08-19T13:58:31.369Z,101245.50
2022-08-19T14:03:35.307Z,101234.50
2022-08-19T14:08:37.598Z,101228.13
2022-08-19T14:13:39.803Z,101242.31
2022-08-19T14:18:42.652Z,101222.16
2022-08-19T14:23:45.184Z,101222.16
2022-08-19T14:28:47.496Z,101219.84
2022-08-19T14:33:50.326Z,101222.63
2022-08-19T14:38:52.473Z,101211.59
2022-08-19T14:43:55.473Z,101217.78
2022-08-19T14:48:59.951Z,101219.44
2022-08-19T14:54:02.614Z,101219.56
2022-08-19T14:59:04.869Z,101224.50
2022-08-19T15:04:07.111Z,101226.09
2022-08-19T15:09:10.532Z,101231.75
2022-08-19T15:14:12.920Z,101245.38
2022-08-19T15:19:15.098Z,101249.53
2022-08-19T15:24:17.322Z,101239.38
2022-08-19T15:29:20.846Z,101248.28
2022-08-19T15:34:24.036Z,101249.34
2022-08-19T15:39:26.885Z,101251.91
2022-08-19T15:44:29.380Z,101257.25
2022-08-19T15:49:31.687Z,101266.97
2022-08-19T15:54:34.012Z,101265.91
2022-08-19T15:59:40.851Z,101276.09
2022-08-19T16:04:52.092Z,101279.25
2022-08-19T16:09:54.353Z,101280.66
2022-08-19T16:14:56.964Z,101282.72
2022-08-19T16:19:59.052Z,101298.22
2022-08-19T16:25:01.929Z,101300.53
2022-08-19T16:30:04.785Z,101297.84
2022-08-19T16:35:07.391Z,101299.25
2022-08-19T16:40:10.204Z,101309.69
2022-08-19T16:45:14.780Z,101309.03
2022-08-19T16:50:25.290Z,101305.56
2022-08-19T16:55:35.789Z,101303.91
2022-08-19T17:00:38.170Z,101311.41
2022-08-19T17:05:43.300Z,101306.84
2022-08-19T17:11:16.365Z,101307.59
2022-08-19T17:16:08.690Z,101308.16
2022-08-19T17:21:11.138Z,101303.00
2022-08-19T17:26:18.447Z,101309.00
2022-08-19T17:31:23.486Z,101300.88
2022-08-19T17:36:28.975Z,101307.72
2022-08-19T17:41:31.906Z,101313.09
2022-08-19T17:46:34.223Z,101319.13
2022-08-19T17:51:36.313Z,101321.09
2022-08-19T17:56:38.474Z,101319.88
2022-08-19T18:01:52.689Z,101318.16
2022-08-19T18:06:56.764Z,101321.63
2022-08-19T18:11:59.909Z,101321.72
2022-08-19T18:17:05.641Z,101331.97
2022-08-19T18:22:07.938Z,101338.41
2022-08-19T18:27:10.398Z,101336.19
2022-08-19T18:32:13.149Z,101331.47
2022-08-19T18:37:15.589Z,101327.44
2022-08-19T18:42:19.407Z,101330.16
2022-08-19T18:47:22.488Z,101339.44
2022-08-19T18:52:24.768Z,101346.56
2022-08-19T18:57:26.974Z,101341.38
2022-08-19T19:02:29.236Z,101350.13
2022-08-19T19:07:31.625Z,101354.47
2022-08-19T19:12:42.572Z,101357.19
2022-08-19T19:17:44.734Z,101367.38
2022-08-19T19:22:47.033Z,101368.31
2022-08-19T19:27:49.340Z,101362.13
2022-08-19T19:32:51.666Z,101357.22
2022-08-19T19:37:53.951Z,101359.69
2022-08-19T19:42:56.344Z,101368.16
2022-08-19T19:47:58.577Z,101375.69
2022-08-19T19:53:00.820Z,101384.13
2022-08-19T19:58:03.241Z,101398.97
2022-08-19T20:03:05.490Z,101401.53
2022-08-19T20:08:07.698Z,101414.66
2022-08-19T20:13:11.208Z,101408.78
2022-08-19T20:18:13.534Z,101411.03
2022-08-19T20:23:19.633Z,101413.56
2022-08-19T20:28:21.797Z,101410.78
2022-08-19T20:33:24.095Z,101410.94
2022-08-19T20:38:26.245Z,101420.31
2022-08-19T20:43:28.564Z,101421.44
2022-08-19T20:48:30.903Z,101426.19
2022-08-19T20:53:33.882Z,101415.72
2022-08-19T20:58:36.547Z,101424.25
2022-08-19T21:03:43.463Z,101425.34
2022-08-19T21:08:46.049Z,101419.19
2022-08-19T21:13:51.264Z,101423.25
2022-08-19T21:18:53.399Z,101416.69
2022-08-19T21:23:55.592Z,101413.34
2022-08-19T21:28:57.745Z,101412.78
2022-08-19T21:33:59.914Z,101409.41
2022-08-19T21:39:02.113Z,101408.53
2022-08-19T21:44:04.353Z,101417.47
2022-08-19T21:49:06.538Z,101415.84
2022-08-19T21:54:08.697Z,101424.38
2022-08-19T21:59:16.446Z,101421.16
2022-08-19T22:04:19.278Z,101425.28
2022-08-19T22:09:21.285Z,101423.06
2022-08-19T22:14:23.374Z,101433.25
2022-08-19T22:19:25.529Z,101437.84
2022-08-19T22:24:27.739Z,101436.47
2022-08-19T22:29:34.134Z,101444.13
2022-08-19T22:34:36.481Z,101434.09
2022-08-19T22:39:38.663Z,101442.47
2022-08-19T22:44:40.923Z,101434.09
2022-08-19T22:49:44.130Z,101434.78
2022-08-19T22:54:51.232Z,101440.09
2022-08-19T22:59:54.589Z,101447.38
2022-08-19T23:04:56.905Z,101443.44
2022-08-19T23:09:59.147Z,101453.22
2022-08-19T23:15:14.527Z,101458.25
2022-08-19T23:20:17.202Z,101454.75
2022-08-19T23:25:23.941Z,101461.59
2022-08-19T23:30:26.437Z,101461.34
2022-08-19T23:35:34.205Z,101467.34
2022-08-19T23:40:37.900Z,101464.69
2022-08-19T23:45:41.182Z,101469.88
2022-08-19T23:50:54.073Z,101464.69
2022-08-19T23:55:57.055Z,101464.69
